sensor_id;sensor_type;location;lat;lon;timestamp;temperature;humidity
13405;DHT22;6773;51.192;7.024;2023-03-14T00:01:13;10.80;99.90
13405;DHT22;6773;51.192;7.024;2023-03-14T00:03:39;10.70;99.90
13405;DHT22;6773;51.192;7.024;2023-03-14T00:06:06;10.70;99.90
13405;DHT22;6773;51.192;7.024;2023-03-14T00:08:32;10.70;99.90
13405;DHT22;6773;51.192;7.024;2023-03-14T00:13:24;10.70;99.90
13405;DHT22;6773;51.192;7.024;2023-03-14T00:18:16;10.70;99.90
13405;DHT22;6773;51.192;7.024;2023-03-14T00:20:41;10.70;99.90
13405;DHT22;6773;51.192;7.024;2023-03-14T00:23:07;10.60;99.90
13405;DHT22;6773;51.192;7.024;2023-03-14T00:25:33;10.70;99.90
13405;DHT22;6773;51.192;7.024;2023-03-14T00:27:59;10.70;99.90
13405;DHT22;6773;51.192;7.024;2023-03-14T00:32:51;10.70;99.90
13405;DHT22;6773;51.192;7.024;2023-03-14T00:35:17;10.70;99.90
13405;DHT22;6773;51.192;7.024;2023-03-14T00:37:42;10.80;99.90
13405;DHT22;6773;51.192;7.024;2023-03-14T00:40:08;10.80;99.90
13405;DHT22;6773;51.192;7.024;2023-03-14T00:42:35;10.90;99.90
13405;DHT22;6773;51.192;7.024;2023-03-14T00:45:00;10.90;99.90
13405;DHT22;6773;51.192;7.024;2023-03-14T00:47:26;10.90;99.90
13405;DHT22;6773;51.192;7.024;2023-03-14T00:49:52;10.90;99.90
13405;DHT22;6773;51.192;7.024;2023-03-14T00:52:17;10.80;99.90
13405;DHT22;6773;51.192;7.024;2023-03-14T00:54:43;10.80;99.90
13405;DHT22;6773;51.192;7.024;2023-03-14T00:57:08;10.80;99.90
13405;DHT22;6773;51.192;7.024;2023-03-14T01:02:00;10.70;99.90
13405;DHT22;6773;51.192;7.024;2023-03-14T01:04:26;10.40;99.90
13405;DHT22;6773;51.192;7.024;2023-03-14T01:06:51;10.00;99.90
13405;DHT22;6773;51.192;7.024;2023-03-14T01:09:17;9.70;99.90
13405;DHT22;6773;51.192;7.024;2023-03-14T01:11:43;9.40;99.90
13405;DHT22;6773;51.192;7.024;2023-03-14T01:14:12;9.20;99.90
13405;DHT22;6773;51.192;7.024;2023-03-14T01:16:38;9.10;99.90
13405;DHT22;6773;51.192;7.024;2023-03-14T01:19:04;9.00;99.90
13405;DHT22;6773;51.192;7.024;2023-03-14T01:21:34;8.80;99.90
13405;DHT22;6773;51.192;7.024;2023-03-14T01:24:01;8.70;99.90
13405;DHT22;6773;51.192;7.024;2023-03-14T01:26:30;8.70;99.90
13405;DHT22;6773;51.192;7.024;2023-03-14T01:28:56;8.60;99.90
13405;DHT22;6773;51.192;7.024;2023-03-14T01:31:23;8.60;99.90
13405;DHT22;6773;51.192;7.024;2023-03-14T01:33:49;8.60;99.90
13405;DHT22;6773;51.192;7.024;2023-03-14T01:36:15;8.60;99.90
13405;DHT22;6773;51.192;7.024;2023-03-14T01:38:40;8.60;99.90
13405;DHT22;6773;51.192;7.024;2023-03-14T01:41:08;8.60;99.90
13405;DHT22;6773;51.192;7.024;2023-03-14T01:43:37;8.60;99.90
13405;DHT22;6773;51.192;7.024;2023-03-14T01:53:49;8.70;99.90
13405;DHT22;6773;51.192;7.024;2023-03-14T01:56:17;8.70;99.90
13405;DHT22;6773;51.192;7.024;2023-03-14T01:58:47;8.70;99.90
13405;DHT22;6773;51.192;7.024;2023-03-14T02:01:16;8.70;99.90
13405;DHT22;6773;51.192;7.024;2023-03-14T02:03:52;8.80;99.90
13405;DHT22;6773;51.192;7.024;2023-03-14T02:06:23;8.80;99.90
13405;DHT22;6773;51.192;7.024;2023-03-14T02:08:50;8.80;99.90
13405;DHT22;6773;51.192;7.024;2023-03-14T02:11:17;8.80;99.90
13405;DHT22;6773;51.192;7.024;2023-03-14T02:13:44;8.70;99.90
13405;DHT22;6773;51.192;7.024;2023-03-14T02:16:10;8.80;99.90
13405;DHT22;6773;51.192;7.024;2023-03-14T02:18:36;8.80;99.90
13405;DHT22;6773;51.192;7.024;2023-03-14T02:21:12;8.70;99.90
13405;DHT22;6773;51.192;7.024;2023-03-14T02:31:20;8.70;99.90
13405;DHT22;6773;51.192;7.024;2023-03-14T02:33:47;8.70;99.90
13405;DHT22;6773;51.192;7.024;2023-03-14T02:36:14;8.70;99.90
13405;DHT22;6773;51.192;7.024;2023-03-14T02:41:09;8.80;99.90
13405;DHT22;6773;51.192;7.024;2023-03-14T02:43:35;8.80;99.90
13405;DHT22;6773;51.192;7.024;2023-03-14T02:46:01;8.70;99.90
13405;DHT22;6773;51.192;7.024;2023-03-14T02:48:55;8.80;99.90
13405;DHT22;6773;51.192;7.024;2023-03-14T02:51:23;8.80;99.90
13405;DHT22;6773;51.192;7.024;2023-03-14T02:53:49;8.80;99.90
13405;DHT22;6773;51.192;7.024;2023-03-14T02:58:41;8.80;99.90
13405;DHT22;6773;51.192;7.024;2023-03-14T03:01:06;8.90;99.90
13405;DHT22;6773;51.192;7.024;2023-03-14T03:03:32;8.90;99.90
13405;DHT22;6773;51.192;7.024;2023-03-14T03:05:58;8.90;99.90
13405;DHT22;6773;51.192;7.024;2023-03-14T03:08:25;8.90;99.90
13405;DHT22;6773;51.192;7.024;2023-03-14T03:10:52;8.90;99.90
13405;DHT22;6773;51.192;7.024;2023-03-14T03:13:18;8.90;99.90
13405;DHT22;6773;51.192;7.024;2023-03-14T03:15:44;9.00;99.90
13405;DHT22;6773;51.192;7.024;2023-03-14T03:18:10;9.00;99.90
13405;DHT22;6773;51.192;7.024;2023-03-14T03:20:36;9.00;99.90
13405;DHT22;6773;51.192;7.024;2023-03-14T03:23:03;9.00;99.90
13405;DHT22;6773;51.192;7.024;2023-03-14T03:25:29;9.10;99.90
13405;DHT22;6773;51.192;7.024;2023-03-14T03:27:55;9.00;99.90
13405;DHT22;6773;51.192;7.024;2023-03-14T03:30:21;9.00;99.90
13405;DHT22;6773;51.192;7.024;2023-03-14T03:32:46;9.00;99.90
13405;DHT22;6773;51.192;7.024;2023-03-14T03:35:12;9.00;99.90
13405;DHT22;6773;51.192;7.024;2023-03-14T03:40:04;8.90;99.90
13405;DHT22;6773;51.192;7.024;2023-03-14T03:42:32;8.80;99.90
13405;DHT22;6773;51.192;7.024;2023-03-14T03:44:58;8.80;99.90
13405;DHT22;6773;51.192;7.024;2023-03-14T03:47:24;8.70;99.90
13405;DHT22;6773;51.192;7.024;2023-03-14T03:49:49;8.70;99.90
13405;DHT22;6773;51.192;7.024;2023-03-14T03:52:16;8.70;99.90
13405;DHT22;6773;51.192;7.024;2023-03-14T03:57:07;8.70;99.90
13405;DHT22;6773;51.192;7.024;2023-03-14T03:59:33;8.70;99.90
13405;DHT22;6773;51.192;7.024;2023-03-14T04:01:59;8.70;99.90
13405;DHT22;6773;51.192;7.024;2023-03-14T04:04:25;8.70;99.90
13405;DHT22;6773;51.192;7.024;2023-03-14T04:06:50;8.60;99.90
13405;DHT22;6773;51.192;7.024;2023-03-14T04:09:16;8.60;99.90
13405;DHT22;6773;51.192;7.024;2023-03-14T04:11:42;8.50;99.90
13405;DHT22;6773;51.192;7.024;2023-03-14T04:14:07;8.50;99.90
13405;DHT22;6773;51.192;7.024;2023-03-14T04:16:34;8.50;99.90
13405;DHT22;6773;51.192;7.024;2023-03-14T04:19:00;8.50;99.90
13405;DHT22;6773;51.192;7.024;2023-03-14T04:23:52;8.50;99.90
13405;DHT22;6773;51.192;7.024;2023-03-14T04:26:18;8.40;99.90
13405;DHT22;6773;51.192;7.024;2023-03-14T04:28:43;8.40;99.90
13405;DHT22;6773;51.192;7.024;2023-03-14T04:31:18;8.40;99.90
13405;DHT22;6773;51.192;7.024;2023-03-14T04:33:45;8.30;99.90
13405;DHT22;6773;51.192;7.024;2023-03-14T04:36:10;8.40;99.90
13405;DHT22;6773;51.192;7.024;2023-03-14T04:38:36;8.30;99.90
13405;DHT22;6773;51.192;7.024;2023-03-14T04:43:28;8.50;99.90
13405;DHT22;6773;51.192;7.024;2023-03-14T04:48:20;8.50;99.90
13405;DHT22;6773;51.192;7.024;2023-03-14T04:50:46;8.50;99.90
13405;DHT22;6773;51.192;7.024;2023-03-14T04:53:13;8.50;99.90
13405;DHT22;6773;51.192;7.024;2023-03-14T04:55:38;8.60;99.90
13405;DHT22;6773;51.192;7.024;2023-03-14T04:58:04;8.60;99.90
13405;DHT22;6773;51.192;7.024;2023-03-14T05:00:30;8.50;99.90
13405;DHT22;6773;51.192;7.024;2023-03-14T05:05:22;8.60;99.90
13405;DHT22;6773;51.192;7.024;2023-03-14T05:07:47;8.60;99.90
13405;DHT22;6773;51.192;7.024;2023-03-14T05:10:13;8.70;99.90
13405;DHT22;6773;51.192;7.024;2023-03-14T05:12:39;8.70;99.90
13405;DHT22;6773;51.192;7.024;2023-03-14T05:15:05;8.70;99.90
13405;DHT22;6773;51.192;7.024;2023-03-14T05:17:32;8.80;99.90
13405;DHT22;6773;51.192;7.024;2023-03-14T05:19:58;8.80;99.90
13405;DHT22;6773;51.192;7.024;2023-03-14T05:22:24;8.80;99.90
13405;DHT22;6773;51.192;7.024;2023-03-14T05:24:50;8.80;99.90
13405;DHT22;6773;51.192;7.024;2023-03-14T05:29:41;8.80;99.90
13405;DHT22;6773;51.192;7.024;2023-03-14T05:32:07;8.80;99.90
13405;DHT22;6773;51.192;7.024;2023-03-14T05:34:34;8.80;99.90
13405;DHT22;6773;51.192;7.024;2023-03-14T05:36:59;8.90;99.90
13405;DHT22;6773;51.192;7.024;2023-03-14T05:39:25;8.80;99.90
13405;DHT22;6773;51.192;7.024;2023-03-14T05:41:50;8.80;99.90
13405;DHT22;6773;51.192;7.024;2023-03-14T05:44:17;8.80;99.90
13405;DHT22;6773;51.192;7.024;2023-03-14T05:46:43;8.80;99.90
13405;DHT22;6773;51.192;7.024;2023-03-14T05:49:08;8.80;99.90
13405;DHT22;6773;51.192;7.024;2023-03-14T05:51:34;8.80;99.90
13405;DHT22;6773;51.192;7.024;2023-03-14T05:53:59;8.80;99.90
13405;DHT22;6773;51.192;7.024;2023-03-14T06:01:17;8.80;99.90
13405;DHT22;6773;51.192;7.024;2023-03-14T06:03:42;8.80;99.90
13405;DHT22;6773;51.192;7.024;2023-03-14T06:06:08;8.80;99.90
13405;DHT22;6773;51.192;7.024;2023-03-14T06:08:34;8.90;99.90
13405;DHT22;6773;51.192;7.024;2023-03-14T06:13:25;8.90;99.90
13405;DHT22;6773;51.192;7.024;2023-03-14T06:20:43;9.00;99.90
13405;DHT22;6773;51.192;7.024;2023-03-14T06:23:09;9.00;99.90
13405;DHT22;6773;51.192;7.024;2023-03-14T06:25:35;9.00;99.90
13405;DHT22;6773;51.192;7.024;2023-03-14T06:28:01;9.00;99.90
13405;DHT22;6773;51.192;7.024;2023-03-14T06:30:27;8.90;99.90
13405;DHT22;6773;51.192;7.024;2023-03-14T06:32:52;9.00;99.90
13405;DHT22;6773;51.192;7.024;2023-03-14T06:35:19;9.00;99.90
13405;DHT22;6773;51.192;7.024;2023-03-14T06:37:44;9.00;99.90
13405;DHT22;6773;51.192;7.024;2023-03-14T06:40:11;8.90;99.90
13405;DHT22;6773;51.192;7.024;2023-03-14T06:42:39;8.90;99.90
13405;DHT22;6773;51.192;7.024;2023-03-14T06:45:05;8.90;99.90
13405;DHT22;6773;51.192;7.024;2023-03-14T06:47:31;8.90;99.90
13405;DHT22;6773;51.192;7.024;2023-03-14T06:49:56;8.80;99.90
13405;DHT22;6773;51.192;7.024;2023-03-14T06:52:22;8.90;99.90
13405;DHT22;6773;51.192;7.024;2023-03-14T06:54:47;8.90;99.90
13405;DHT22;6773;51.192;7.024;2023-03-14T07:02:10;9.00;99.90
13405;DHT22;6773;51.192;7.024;2023-03-14T07:04:36;9.00;99.90
13405;DHT22;6773;51.192;7.024;2023-03-14T07:07:01;8.90;99.90
13405;DHT22;6773;51.192;7.024;2023-03-14T07:09:27;9.00;99.90
13405;DHT22;6773;51.192;7.024;2023-03-14T07:11:52;9.00;99.90
13405;DHT22;6773;51.192;7.024;2023-03-14T07:14:18;9.00;99.90
13405;DHT22;6773;51.192;7.024;2023-03-14T07:16:43;9.00;99.90
13405;DHT22;6773;51.192;7.024;2023-03-14T07:19:10;9.10;99.90
13405;DHT22;6773;51.192;7.024;2023-03-14T07:24:02;9.10;99.90
13405;DHT22;6773;51.192;7.024;2023-03-14T07:26:28;9.10;99.90
13405;DHT22;6773;51.192;7.024;2023-03-14T07:28:54;9.10;99.90
13405;DHT22;6773;51.192;7.024;2023-03-14T07:31:20;9.10;99.90
13405;DHT22;6773;51.192;7.024;2023-03-14T07:33:45;9.10;99.90
13405;DHT22;6773;51.192;7.024;2023-03-14T07:36:11;9.10;99.90
13405;DHT22;6773;51.192;7.024;2023-03-14T07:41:05;9.10;99.90
13405;DHT22;6773;51.192;7.024;2023-03-14T07:45:57;9.20;99.90
13405;DHT22;6773;51.192;7.024;2023-03-14T07:48:22;9.30;99.90
13405;DHT22;6773;51.192;7.024;2023-03-14T07:50:51;9.30;99.90
13405;DHT22;6773;51.192;7.024;2023-03-14T07:53:17;9.30;99.90
13405;DHT22;6773;51.192;7.024;2023-03-14T07:55:42;9.40;99.90
13405;DHT22;6773;51.192;7.024;2023-03-14T07:58:08;9.40;99.90
13405;DHT22;6773;51.192;7.024;2023-03-14T08:00:34;9.40;99.90
13405;DHT22;6773;51.192;7.024;2023-03-14T08:05:26;9.40;99.90
13405;DHT22;6773;51.192;7.024;2023-03-14T08:07:52;9.40;99.90
13405;DHT22;6773;51.192;7.024;2023-03-14T08:10:18;9.40;99.90
13405;DHT22;6773;51.192;7.024;2023-03-14T08:12:50;9.40;99.90
13405;DHT22;6773;51.192;7.024;2023-03-14T08:15:16;9.40;99.90
13405;DHT22;6773;51.192;7.024;2023-03-14T08:17:42;9.50;99.90
13405;DHT22;6773;51.192;7.024;2023-03-14T08:20:08;9.60;99.90
13405;DHT22;6773;51.192;7.024;2023-03-14T08:22:37;9.50;99.90
13405;DHT22;6773;51.192;7.024;2023-03-14T08:25:03;9.60;99.90
13405;DHT22;6773;51.192;7.024;2023-03-14T08:27:28;9.60;99.90
13405;DHT22;6773;51.192;7.024;2023-03-14T08:29:54;9.70;99.90
13405;DHT22;6773;51.192;7.024;2023-03-14T08:32:20;9.70;99.90
13405;DHT22;6773;51.192;7.024;2023-03-14T08:34:46;9.70;99.90
13405;DHT22;6773;51.192;7.024;2023-03-14T08:37:11;9.80;99.90
13405;DHT22;6773;51.192;7.024;2023-03-14T08:39:37;9.80;99.90
13405;DHT22;6773;51.192;7.024;2023-03-14T08:42:03;9.80;99.90
13405;DHT22;6773;51.192;7.024;2023-03-14T08:44:28;9.90;99.90
13405;DHT22;6773;51.192;7.024;2023-03-14T08:46:54;9.90;99.90
13405;DHT22;6773;51.192;7.024;2023-03-14T08:51:46;9.90;99.90
13405;DHT22;6773;51.192;7.024;2023-03-14T08:56:38;9.90;99.90
13405;DHT22;6773;51.192;7.024;2023-03-14T08:59:04;9.80;99.90
13405;DHT22;6773;51.192;7.024;2023-03-14T09:01:30;9.80;99.90
13405;DHT22;6773;51.192;7.024;2023-03-14T09:03:55;9.80;99.90
13405;DHT22;6773;51.192;7.024;2023-03-14T09:06:21;9.80;99.90
13405;DHT22;6773;51.192;7.024;2023-03-14T09:08:47;9.80;99.90
13405;DHT22;6773;51.192;7.024;2023-03-14T09:11:13;9.80;99.90
13405;DHT22;6773;51.192;7.024;2023-03-14T09:13:39;9.70;99.90
13405;DHT22;6773;51.192;7.024;2023-03-14T09:16:05;9.80;99.90
13405;DHT22;6773;51.192;7.024;2023-03-14T09:18:31;9.70;99.90
13405;DHT22;6773;51.192;7.024;2023-03-14T09:20:57;9.70;99.90
13405;DHT22;6773;51.192;7.024;2023-03-14T09:23:22;9.70;99.90
13405;DHT22;6773;51.192;7.024;2023-03-14T09:28:14;9.60;99.90
13405;DHT22;6773;51.192;7.024;2023-03-14T09:30:39;9.60;99.90
13405;DHT22;6773;51.192;7.024;2023-03-14T09:33:05;9.60;99.90
13405;DHT22;6773;51.192;7.024;2023-03-14T09:35:32;9.50;99.90
13405;DHT22;6773;51.192;7.024;2023-03-14T09:37:58;9.40;99.90
13405;DHT22;6773;51.192;7.024;2023-03-14T09:40:24;9.20;99.90
13405;DHT22;6773;51.192;7.024;2023-03-14T09:42:53;8.70;99.90
13405;DHT22;6773;51.192;7.024;2023-03-14T09:45:36;8.50;99.90
13405;DHT22;6773;51.192;7.024;2023-03-14T09:48:04;8.40;99.90
13405;DHT22;6773;51.192;7.024;2023-03-14T09:50:40;8.20;99.90
13405;DHT22;6773;51.192;7.024;2023-03-14T09:53:11;8.00;99.90
13405;DHT22;6773;51.192;7.024;2023-03-14T09:55:38;7.80;99.90
13405;DHT22;6773;51.192;7.024;2023-03-14T09:58:11;7.70;99.90
13405;DHT22;6773;51.192;7.024;2023-03-14T10:00:37;7.70;99.90
13405;DHT22;6773;51.192;7.024;2023-03-14T10:05:38;7.50;99.90
13405;DHT22;6773;51.192;7.024;2023-03-14T10:08:04;7.50;99.90
13405;DHT22;6773;51.192;7.024;2023-03-14T10:10:31;7.50;99.90
13405;DHT22;6773;51.192;7.024;2023-03-14T10:13:19;7.60;99.90
13405;DHT22;6773;51.192;7.024;2023-03-14T10:15:51;7.60;99.90
13405;DHT22;6773;51.192;7.024;2023-03-14T10:18:17;7.50;99.90
13405;DHT22;6773;51.192;7.024;2023-03-14T10:20:48;7.50;99.90
13405;DHT22;6773;51.192;7.024;2023-03-14T10:25:42;7.60;99.90
13405;DHT22;6773;51.192;7.024;2023-03-14T10:28:26;7.50;99.90
13405;DHT22;6773;51.192;7.024;2023-03-14T10:30:52;7.50;99.90
13405;DHT22;6773;51.192;7.024;2023-03-14T10:35:44;7.60;99.90
13405;DHT22;6773;51.192;7.024;2023-03-14T10:38:17;7.50;99.90
13405;DHT22;6773;51.192;7.024;2023-03-14T10:40:50;7.60;99.90
13405;DHT22;6773;51.192;7.024;2023-03-14T10:43:38;7.60;99.90
13405;DHT22;6773;51.192;7.024;2023-03-14T10:46:31;7.60;99.90
13405;DHT22;6773;51.192;7.024;2023-03-14T10:48:58;7.60;99.90
13405;DHT22;6773;51.192;7.024;2023-03-14T10:51:28;7.60;99.90
13405;DHT22;6773;51.192;7.024;2023-03-14T10:54:03;7.50;99.90
13405;DHT22;6773;51.192;7.024;2023-03-14T10:56:36;7.50;99.90
13405;DHT22;6773;51.192;7.024;2023-03-14T10:59:04;7.50;99.90
13405;DHT22;6773;51.192;7.024;2023-03-14T11:01:55;7.50;99.90
13405;DHT22;6773;51.192;7.024;2023-03-14T11:10:35;7.40;99.90
13405;DHT22;6773;51.192;7.024;2023-03-14T11:21:21;6.90;99.90
13405;DHT22;6773;51.192;7.024;2023-03-14T11:26:54;6.60;99.90
13405;DHT22;6773;51.192;7.024;2023-03-14T11:29:32;6.40;99.90
13405;DHT22;6773;51.192;7.024;2023-03-14T11:32:02;4.40;99.90
13405;DHT22;6773;51.192;7.024;2023-03-14T11:37:28;6.20;99.90
13405;DHT22;6773;51.192;7.024;2023-03-14T11:40:17;6.20;99.90
13405;DHT22;6773;51.192;7.024;2023-03-14T11:42:45;6.30;99.90
13405;DHT22;6773;51.192;7.024;2023-03-14T11:45:28;6.40;99.90
13405;DHT22;6773;51.192;7.024;2023-03-14T11:50:45;6.40;99.90
13405;DHT22;6773;51.192;7.024;2023-03-14T11:53:17;6.40;99.90
13405;DHT22;6773;51.192;7.024;2023-03-14T11:55:44;6.80;99.90
13405;DHT22;6773;51.192;7.024;2023-03-14T11:58:26;6.30;99.90
13405;DHT22;6773;51.192;7.024;2023-03-14T12:00:54;6.20;99.90
13405;DHT22;6773;51.192;7.024;2023-03-14T12:03:38;6.10;99.90
13405;DHT22;6773;51.192;7.024;2023-03-14T12:06:24;6.10;99.90
13405;DHT22;6773;51.192;7.024;2023-03-14T12:08:55;6.00;99.90
13405;DHT22;6773;51.192;7.024;2023-03-14T12:14:32;6.00;99.90
13405;DHT22;6773;51.192;7.024;2023-03-14T12:19:32;6.20;99.90
13405;DHT22;6773;51.192;7.024;2023-03-14T12:24:49;6.00;99.90
13405;DHT22;6773;51.192;7.024;2023-03-14T12:30:32;6.00;99.90
13405;DHT22;6773;51.192;7.024;2023-03-14T12:35:57;6.00;99.90
13405;DHT22;6773;51.192;7.024;2023-03-14T12:40:56;6.00;99.90
13405;DHT22;6773;51.192;7.024;2023-03-14T12:43:34;6.00;99.90
13405;DHT22;6773;51.192;7.024;2023-03-14T12:48:39;6.00;99.90
13405;DHT22;6773;51.192;7.024;2023-03-14T12:51:13;6.10;99.90
13405;DHT22;6773;51.192;7.024;2023-03-14T12:56:24;6.40;99.90
13405;DHT22;6773;51.192;7.024;2023-03-14T12:59:04;6.40;99.90
13405;DHT22;6773;51.192;7.024;2023-03-14T13:01:33;6.60;99.90
13405;DHT22;6773;51.192;7.024;2023-03-14T13:04:07;6.70;99.90
13405;DHT22;6773;51.192;7.024;2023-03-14T13:06:50;7.00;99.90
13405;DHT22;6773;51.192;7.024;2023-03-14T13:12:10;7.20;99.90
13405;DHT22;6773;51.192;7.024;2023-03-14T13:14:41;6.90;99.90
13405;DHT22;6773;51.192;7.024;2023-03-14T13:17:12;6.70;99.90
13405;DHT22;6773;51.192;7.024;2023-03-14T13:19:39;6.40;99.90
13405;DHT22;6773;51.192;7.024;2023-03-14T13:22:15;6.20;99.90
13405;DHT22;6773;51.192;7.024;2023-03-14T13:24:42;6.20;99.90
13405;DHT22;6773;51.192;7.024;2023-03-14T13:27:17;6.10;99.90
13405;DHT22;6773;51.192;7.024;2023-03-14T13:32:28;6.40;99.90
13405;DHT22;6773;51.192;7.024;2023-03-14T13:34:58;6.60;99.90
13405;DHT22;6773;51.192;7.024;2023-03-14T13:37:25;6.70;99.90
13405;DHT22;6773;51.192;7.024;2023-03-14T13:39:53;7.00;99.90
13405;DHT22;6773;51.192;7.024;2023-03-14T13:42:24;7.30;99.90
13405;DHT22;6773;51.192;7.024;2023-03-14T13:44:53;7.40;99.90
13405;DHT22;6773;51.192;7.024;2023-03-14T13:47:21;7.50;99.90
13405;DHT22;6773;51.192;7.024;2023-03-14T13:49:49;7.30;99.90
13405;DHT22;6773;51.192;7.024;2023-03-14T13:57:13;6.30;99.90
13405;DHT22;6773;51.192;7.024;2023-03-14T13:59:39;5.90;99.90
13405;DHT22;6773;51.192;7.024;2023-03-14T14:02:13;5.60;99.90
13405;DHT22;6773;51.192;7.024;2023-03-14T14:04:39;5.60;99.90
13405;DHT22;6773;51.192;7.024;2023-03-14T14:07:13;5.70;99.90
13405;DHT22;6773;51.192;7.024;2023-03-14T14:09:41;5.80;99.90
13405;DHT22;6773;51.192;7.024;2023-03-14T14:12:16;5.90;99.90
13405;DHT22;6773;51.192;7.024;2023-03-14T14:15:04;6.10;99.90
13405;DHT22;6773;51.192;7.024;2023-03-14T14:17:53;6.10;99.90
13405;DHT22;6773;51.192;7.024;2023-03-14T14:20:37;6.50;99.90
13405;DHT22;6773;51.192;7.024;2023-03-14T14:23:26;7.20;99.90
13405;DHT22;6773;51.192;7.024;2023-03-14T14:25:52;7.60;99.90
13405;DHT22;6773;51.192;7.024;2023-03-14T14:28:25;7.90;99.90
13405;DHT22;6773;51.192;7.024;2023-03-14T14:33:45;7.50;99.90
13405;DHT22;6773;51.192;7.024;2023-03-14T14:36:19;7.40;99.90
13405;DHT22;6773;51.192;7.024;2023-03-14T14:38:50;7.50;99.90
13405;DHT22;6773;51.192;7.024;2023-03-14T14:41:16;7.40;99.90
13405;DHT22;6773;51.192;7.024;2023-03-14T14:46:08;7.30;99.90
13405;DHT22;6773;51.192;7.024;2023-03-14T14:48:37;7.30;99.90
13405;DHT22;6773;51.192;7.024;2023-03-14T14:51:05;7.30;99.90
13405;DHT22;6773;51.192;7.024;2023-03-14T14:53:37;7.30;99.90
13405;DHT22;6773;51.192;7.024;2023-03-14T14:56:16;9.40;99.90
13405;DHT22;6773;51.192;7.024;2023-03-14T14:58:45;7.40;99.90
13405;DHT22;6773;51.192;7.024;2023-03-14T15:03:36;7.30;99.90
13405;DHT22;6773;51.192;7.024;2023-03-14T15:06:03;7.30;99.90
13405;DHT22;6773;51.192;7.024;2023-03-14T15:10:55;7.30;99.90
13405;DHT22;6773;51.192;7.024;2023-03-14T15:13:21;7.30;99.90
13405;DHT22;6773;51.192;7.024;2023-03-14T15:15:47;7.30;98.30
13405;DHT22;6773;51.192;7.024;2023-03-14T15:18:16;7.30;98.50
13405;DHT22;6773;51.192;7.024;2023-03-14T15:20:43;7.30;96.70
13405;DHT22;6773;51.192;7.024;2023-03-14T15:23:13;7.30;96.60
13405;DHT22;6773;51.192;7.024;2023-03-14T15:30:37;7.40;95.90
13405;DHT22;6773;51.192;7.024;2023-03-14T15:33:03;7.50;95.10
13405;DHT22;6773;51.192;7.024;2023-03-14T15:35:28;7.50;94.30
13405;DHT22;6773;51.192;7.024;2023-03-14T15:40:22;7.20;93.20
13405;DHT22;6773;51.192;7.024;2023-03-14T15:45:15;7.10;94.20
13405;DHT22;6773;51.192;7.024;2023-03-14T15:50:09;7.10;94.50
13405;DHT22;6773;51.192;7.024;2023-03-14T15:52:35;7.00;93.70
13405;DHT22;6773;51.192;7.024;2023-03-14T15:55:00;6.90;94.60
13405;DHT22;6773;51.192;7.024;2023-03-14T15:57:26;6.90;94.40
13405;DHT22;6773;51.192;7.024;2023-03-14T15:59:51;6.80;94.50
13405;DHT22;6773;51.192;7.024;2023-03-14T16:02:17;6.80;94.90
13405;DHT22;6773;51.192;7.024;2023-03-14T16:07:09;6.60;95.20
13405;DHT22;6773;51.192;7.024;2023-03-14T16:09:35;6.60;95.10
13405;DHT22;6773;51.192;7.024;2023-03-14T16:14:29;6.50;94.90
13405;DHT22;6773;51.192;7.024;2023-03-14T16:16:55;6.40;94.50
13405;DHT22;6773;51.192;7.024;2023-03-14T16:21:51;6.30;94.10
13405;DHT22;6773;51.192;7.024;2023-03-14T16:24:17;6.40;94.60
13405;DHT22;6773;51.192;7.024;2023-03-14T16:26:43;6.30;94.60
13405;DHT22;6773;51.192;7.024;2023-03-14T16:34:08;6.30;94.70
13405;DHT22;6773;51.192;7.024;2023-03-14T16:36:34;6.20;95.10
13405;DHT22;6773;51.192;7.024;2023-03-14T16:38:59;6.10;94.70
13405;DHT22;6773;51.192;7.024;2023-03-14T16:41:25;6.10;94.70
13405;DHT22;6773;51.192;7.024;2023-03-14T16:43:58;6.00;94.40
13405;DHT22;6773;51.192;7.024;2023-03-14T16:46:25;6.10;95.00
13405;DHT22;6773;51.192;7.024;2023-03-14T16:51:18;6.00;94.80
13405;DHT22;6773;51.192;7.024;2023-03-14T16:53:44;6.00;94.80
13405;DHT22;6773;51.192;7.024;2023-03-14T16:58:37;6.00;95.20
13405;DHT22;6773;51.192;7.024;2023-03-14T17:01:07;6.00;95.30
13405;DHT22;6773;51.192;7.024;2023-03-14T17:03:40;5.90;94.90
13405;DHT22;6773;51.192;7.024;2023-03-14T17:06:06;5.90;94.30
13405;DHT22;6773;51.192;7.024;2023-03-14T17:10:58;5.80;95.30
13405;DHT22;6773;51.192;7.024;2023-03-14T17:13:24;5.80;94.20
13405;DHT22;6773;51.192;7.024;2023-03-14T17:15:54;5.70;94.20
13405;DHT22;6773;51.192;7.024;2023-03-14T17:18:21;5.70;94.20
13405;DHT22;6773;51.192;7.024;2023-03-14T17:20:47;5.70;94.60
13405;DHT22;6773;51.192;7.024;2023-03-14T17:23:12;5.70;95.20
13405;DHT22;6773;51.192;7.024;2023-03-14T17:30:31;5.60;95.10
13405;DHT22;6773;51.192;7.024;2023-03-14T17:32:56;5.60;95.20
13405;DHT22;6773;51.192;7.024;2023-03-14T17:35:22;5.60;95.50
13405;DHT22;6773;51.192;7.024;2023-03-14T17:40:13;5.50;95.00
13405;DHT22;6773;51.192;7.024;2023-03-14T17:42:40;5.50;94.60
13405;DHT22;6773;51.192;7.024;2023-03-14T17:45:06;5.50;94.70
13405;DHT22;6773;51.192;7.024;2023-03-14T17:47:32;5.50;94.90
13405;DHT22;6773;51.192;7.024;2023-03-14T17:49:58;5.40;93.90
13405;DHT22;6773;51.192;7.024;2023-03-14T17:52:23;5.40;94.60
13405;DHT22;6773;51.192;7.024;2023-03-14T17:57:15;5.40;94.40
13405;DHT22;6773;51.192;7.024;2023-03-14T18:02:08;5.30;95.30
13405;DHT22;6773;51.192;7.024;2023-03-14T18:04:35;5.20;95.70
13405;DHT22;6773;51.192;7.024;2023-03-14T18:09:26;5.20;95.80
13405;DHT22;6773;51.192;7.024;2023-03-14T18:11:52;5.20;96.40
13405;DHT22;6773;51.192;7.024;2023-03-14T18:14:17;5.20;96.40
13405;DHT22;6773;51.192;7.024;2023-03-14T18:16:43;5.10;95.50
13405;DHT22;6773;51.192;7.024;2023-03-14T18:19:14;5.10;95.60
13405;DHT22;6773;51.192;7.024;2023-03-14T18:24:06;5.00;95.60
13405;DHT22;6773;51.192;7.024;2023-03-14T18:26:32;5.10;95.40
13405;DHT22;6773;51.192;7.024;2023-03-14T18:31:25;5.00;94.90
13405;DHT22;6773;51.192;7.024;2023-03-14T18:33:53;5.00;95.30
13405;DHT22;6773;51.192;7.024;2023-03-14T18:36:20;5.00;94.30
13405;DHT22;6773;51.192;7.024;2023-03-14T18:38:46;4.90;94.70
13405;DHT22;6773;51.192;7.024;2023-03-14T18:41:16;4.80;94.70
13405;DHT22;6773;51.192;7.024;2023-03-14T18:43:43;4.90;94.90
13405;DHT22;6773;51.192;7.024;2023-03-14T18:46:10;4.80;94.30
13405;DHT22;6773;51.192;7.024;2023-03-14T18:48:36;4.80;94.60
13405;DHT22;6773;51.192;7.024;2023-03-14T18:56:00;4.80;94.70
13405;DHT22;6773;51.192;7.024;2023-03-14T18:58:26;4.70;95.00
13405;DHT22;6773;51.192;7.024;2023-03-14T19:01:03;4.70;94.80
13405;DHT22;6773;51.192;7.024;2023-03-14T19:03:31;4.60;95.20
13405;DHT22;6773;51.192;7.024;2023-03-14T19:05:58;4.50;95.30
13405;DHT22;6773;51.192;7.024;2023-03-14T19:08:26;4.60;95.40
13405;DHT22;6773;51.192;7.024;2023-03-14T19:10:54;4.50;95.50
13405;DHT22;6773;51.192;7.024;2023-03-14T19:13:21;4.50;95.50
13405;DHT22;6773;51.192;7.024;2023-03-14T19:15:47;4.50;96.10
13405;DHT22;6773;51.192;7.024;2023-03-14T19:18:13;4.50;95.30
13405;DHT22;6773;51.192;7.024;2023-03-14T19:20:39;4.50;96.00
13405;DHT22;6773;51.192;7.024;2023-03-14T19:23:07;4.40;96.30
13405;DHT22;6773;51.192;7.024;2023-03-14T19:25:33;4.40;96.60
13405;DHT22;6773;51.192;7.024;2023-03-14T19:30:24;4.40;97.10
13405;DHT22;6773;51.192;7.024;2023-03-14T19:32:51;4.30;97.10
13405;DHT22;6773;51.192;7.024;2023-03-14T19:35:17;4.40;97.30
13405;DHT22;6773;51.192;7.024;2023-03-14T19:37:43;4.30;97.00